createdAt,value
2023-05-05T00:00:17.382Z,101552.19
2023-05-05T00:02:45.717Z,101518.16
2023-05-05T00:05:14.166Z,101567.59
2023-05-05T00:07:43.672Z,101578.13
2023-05-05T00:10:12.246Z,101563.50
2023-05-05T00:12:40.513Z,101562.22
2023-05-05T00:15:09.949Z,101559.06
2023-05-05T00:17:38.266Z,101550.16
2023-05-05T00:20:09.948Z,101551.44
2023-05-05T00:22:38.145Z,101541.59
2023-05-05T00:25:10.832Z,101526.56
2023-05-05T00:27:40.820Z,101542.38
2023-05-05T00:30:10.736Z,101537.16
2023-05-05T00:32:40.029Z,101545.06
2023-05-05T00:35:08.961Z,101517.19
2023-05-05T00:37:37.552Z,101527.78
2023-05-05T00:40:09.092Z,101546.56
2023-05-05T00:42:45.460Z,101543.50
2023-05-05T00:45:15.873Z,101547.88
2023-05-05T00:47:47.343Z,101548.16
2023-05-05T00:50:24.018Z,101562.88
2023-05-05T00:52:55.352Z,101604.16
2023-05-05T00:55:26.286Z,101577.34
2023-05-05T00:57:54.741Z,101601.84
2023-05-05T01:00:23.441Z,101582.31
2023-05-05T01:02:52.335Z,101585.47
2023-05-05T01:05:23.054Z,101566.03
2023-05-05T01:08:15.326Z,101583.84
2023-05-05T01:10:57.303Z,101586.03
2023-05-05T01:13:36.983Z,101587.22
2023-05-05T01:16:15.773Z,101545.81
2023-05-05T01:18:53.618Z,101525.16
2023-05-05T01:21:31.506Z,101595.47
2023-05-05T01:24:46.698Z,101587.78
2023-05-05T01:27:44.831Z,101599.19
2023-05-05T01:30:47.837Z,101594.47
2023-05-05T01:33:27.084Z,101578.03
2023-05-05T01:36:02.800Z,101570.09
2023-05-05T01:38:41.786Z,101574.16
2023-05-05T01:41:15.436Z,101577.28
2023-05-05T01:43:48.121Z,101552.75
2023-05-05T01:46:17.719Z,101588.00
2023-05-05T01:48:50.140Z,101558.94
2023-05-05T01:51:20.244Z,101565.81
2023-05-05T01:53:48.903Z,101572.84
2023-05-05T01:56:19.438Z,101565.97
2023-05-05T01:58:49.467Z,101569.94
2023-05-05T02:01:21.909Z,101597.63
2023-05-05T02:03:53.372Z,101594.75
2023-05-05T02:06:23.121Z,101590.03
2023-05-05T02:08:55.576Z,101557.00
2023-05-05T02:11:27.425Z,101590.09
2023-05-05T02:13:56.601Z,101562.34
2023-05-05T02:16:25.840Z,101593.34
2023-05-05T02:18:56.685Z,101594.88
2023-05-05T02:21:28.709Z,101575.19
2023-05-05T02:23:56.939Z,101585.28
2023-05-05T02:26:26.165Z,101602.41
2023-05-05T02:29:09.130Z,101547.06
2023-05-05T02:31:45.150Z,101611.38
2023-05-05T02:34:19.892Z,101612.53
2023-05-05T02:36:54.269Z,101612.25
2023-05-05T02:39:36.309Z,101616.38
2023-05-05T02:42:19.635Z,101608.81
2023-05-05T02:44:54.121Z,101580.47
2023-05-05T02:47:22.717Z,101613.34
2023-05-05T02:50:00.960Z,101619.69
2023-05-05T02:52:29.482Z,101613.72
2023-05-05T02:54:57.856Z,101626.66
2023-05-05T02:57:36.889Z,101617.22
2023-05-05T03:00:15.988Z,101610.81
2023-05-05T03:02:53.290Z,101557.97
2023-05-05T03:05:34.102Z,101591.84
2023-05-05T03:08:11.916Z,101598.94
2023-05-05T03:10:48.348Z,101597.41
2023-05-05T03:13:19.656Z,101590.47
2023-05-05T03:15:55.864Z,101581.44
2023-05-05T03:18:34.324Z,101614.53
2023-05-05T03:21:09.109Z,101587.13
2023-05-05T03:23:55.610Z,101619.00
2023-05-05T03:26:26.319Z,101612.13
2023-05-05T03:28:54.442Z,101614.78
2023-05-05T03:31:28.510Z,101618.38
2023-05-05T03:34:01.191Z,101606.63
2023-05-05T03:36:37.154Z,101618.63
2023-05-05T03:39:07.218Z,101620.44
2023-05-05T03:41:37.933Z,101633.84
2023-05-05T03:44:12.200Z,101625.25
2023-05-05T03:46:44.078Z,101633.28
2023-05-05T03:49:25.815Z,101594.22
2023-05-05T03:51:55.739Z,101601.97
2023-05-05T03:54:23.958Z,101617.25
2023-05-05T03:56:56.326Z,101630.31
2023-05-05T03:59:45.130Z,101619.09
2023-05-05T04:02:18.624Z,101631.78
2023-05-05T04:04:49.497Z,101628.06
2023-05-05T04:07:26.560Z,101626.19
2023-05-05T04:09:54.779Z,101625.22
2023-05-05T04:12:26.208Z,101610.28
2023-05-05T04:14:55.543Z,101626.06
2023-05-05T04:17:23.916Z,101643.25
2023-05-05T04:19:52.110Z,101640.34
2023-05-05T04:22:23.500Z,101635.16
2023-05-05T04:24:55.182Z,101638.75
2023-05-05T04:27:30.453Z,101636.66
2023-05-05T04:30:03.641Z,101593.47
2023-05-05T04:32:36.081Z,101645.63
2023-05-05T04:35:07.775Z,101652.03
2023-05-05T04:37:41.586Z,101648.06
2023-05-05T04:40:11.976Z,101651.50
2023-05-05T04:42:41.269Z,101649.06
2023-05-05T04:45:10.883Z,101651.66
2023-05-05T04:47:47.663Z,101642.25
2023-05-05T04:50:15.892Z,101648.84
2023-05-05T04:52:51.339Z,101642.47
2023-05-05T04:55:27.411Z,101663.22
2023-05-05T04:57:57.485Z,101669.66
2023-05-05T05:00:25.846Z,101644.53
2023-05-05T05:02:56.938Z,101655.50
2023-05-05T05:05:28.279Z,101659.94
2023-05-05T05:08:00.795Z,101662.34
2023-05-05T05:10:33.693Z,101667.75
2023-05-05T05:13:04.096Z,101643.97
2023-05-05T05:15:32.417Z,101664.03
2023-05-05T05:18:00.693Z,101664.53
2023-05-05T05:20:31.844Z,101628.06
2023-05-05T05:23:02.092Z,101668.53
2023-05-05T05:25:31.819Z,101665.41
2023-05-05T05:28:09.571Z,101657.34
2023-05-05T05:30:44.595Z,101669.53
2023-05-05T05:33:13.394Z,101672.41
2023-05-05T05:35:45.774Z,101681.16
2023-05-05T05:38:17.544Z,101631.88
2023-05-05T05:40:45.792Z,101689.78
2023-05-05T05:43:17.105Z,101683.72
2023-05-05T05:45:45.980Z,101696.84
2023-05-05T05:48:14.325Z,101696.22
2023-05-05T05:50:42.513Z,101709.59
2023-05-05T05:53:14.944Z,101707.75
2023-05-05T05:55:50.317Z,101677.06
2023-05-05T05:58:18.708Z,101657.97
2023-05-05T06:00:47.597Z,101708.28
2023-05-05T06:03:20.172Z,101704.13
2023-05-05T06:05:51.617Z,101703.16
2023-05-05T06:08:22.047Z,101698.78
2023-05-05T06:10:55.358Z,101702.16
2023-05-05T06:13:23.597Z,101717.41
2023-05-05T06:16:04.254Z,101719.66
2023-05-05T06:18:40.571Z,101682.03
2023-05-05T06:21:09.202Z,101729.50
2023-05-05T06:23:37.383Z,101735.78
2023-05-05T06:26:09.344Z,101731.94
2023-05-05T06:28:37.516Z,101734.47
2023-05-05T06:31:09.003Z,101733.16
2023-05-05T06:33:37.169Z,101746.91
2023-05-05T06:36:09.929Z,101742.25
2023-05-05T06:38:40.345Z,101746.63
2023-05-05T06:41:12.850Z,101740.75
2023-05-05T06:43:50.235Z,101742.94
2023-05-05T06:46:18.693Z,101736.41
2023-05-05T06:48:54.899Z,101748.47
2023-05-05T06:51:26.761Z,101721.72
2023-05-05T06:54:06.048Z,101722.69
2023-05-05T06:56:41.004Z,101747.81
2023-05-05T06:59:14.549Z,101726.59
2023-05-05T07:01:45.893Z,101745.34
2023-05-05T07:04:14.431Z,101731.34
2023-05-05T07:06:46.846Z,101745.41
2023-05-05T07:09:17.022Z,101746.44
2023-05-05T07:11:48.628Z,101758.03
2023-05-05T07:14:21.450Z,101738.00
2023-05-05T07:16:51.499Z,101746.84
2023-05-05T07:19:22.364Z,101713.84
2023-05-05T07:21:53.088Z,101742.84
2023-05-05T07:24:28.533Z,101746.22
2023-05-05T07:26:59.168Z,101736.25
2023-05-05T07:29:35.836Z,101738.19
2023-05-05T07:32:04.377Z,101748.69
2023-05-05T07:34:36.990Z,101746.94
2023-05-05T07:37:05.820Z,101747.28
2023-05-05T07:39:39.120Z,101746.59
2023-05-05T07:42:13.529Z,101755.88
2023-05-05T07:44:41.788Z,101691.38
2023-05-05T07:47:10.008Z,101749.91
2023-05-05T07:49:40.924Z,101759.59
2023-05-05T07:52:09.190Z,101764.44
2023-05-05T07:54:42.592Z,101759.91
2023-05-05T07:57:12.231Z,101764.88
2023-05-05T07:59:43.982Z,101744.31
2023-05-05T08:02:13.094Z,101755.19
2023-05-05T08:04:41.835Z,101749.19
2023-05-05T08:07:10.260Z,101762.03
2023-05-05T08:09:40.620Z,101764.00
2023-05-05T08:12:09.011Z,101764.47
2023-05-05T08:14:42.447Z,101770.84
2023-05-05T08:17:12.382Z,101773.91
2023-05-05T08:19:40.869Z,101768.72
2023-05-05T08:22:11.693Z,101731.16
2023-05-05T08:24:39.898Z,101759.59
2023-05-05T08:27:08.181Z,101735.28
2023-05-05T08:29:39.464Z,101759.53
2023-05-05T08:32:07.704Z,101758.97
2023-05-05T08:34:35.880Z,101772.56
2023-05-05T08:37:04.054Z,101740.91
2023-05-05T08:39:34.341Z,101734.22
2023-05-05T08:42:02.577Z,101765.94
2023-05-05T08:44:30.843Z,101771.38
2023-05-05T08:47:02.998Z,101731.50
2023-05-05T08:49:38.125Z,101775.53
2023-05-05T08:52:11.443Z,101751.31
2023-05-05T08:54:46.187Z,101745.50
2023-05-05T08:57:17.909Z,101765.34
2023-05-05T08:59:46.534Z,101726.28
2023-05-05T09:02:17.217Z,101754.66
2023-05-05T09:04:45.715Z,101759.91
2023-05-05T09:07:14.140Z,101757.41
2023-05-05T09:09:46.901Z,101758.44
2023-05-05T09:12:18.632Z,101759.91
2023-05-05T09:14:47.992Z,101723.75
2023-05-05T09:17:27.749Z,101765.31
2023-05-05T09:20:15.353Z,101754.28
2023-05-05T09:22:46.190Z,101755.53
2023-05-05T09:25:16.902Z,101757.16
2023-05-05T09:27:49.037Z,101750.88
2023-05-05T09:30:24.152Z,101763.13
2023-05-05T09:32:55.920Z,101750.19
2023-05-05T09:35:24.992Z,101780.72
2023-05-05T09:37:53.187Z,101808.13
2023-05-05T09:40:22.517Z,101819.25
2023-05-05T09:43:02.100Z,101795.25
2023-05-05T09:45:30.292Z,101777.13
2023-05-05T09:48:00.898Z,101811.84
2023-05-05T09:50:32.568Z,101815.69
2023-05-05T09:53:03.061Z,101817.53
2023-05-05T09:55:31.976Z,101826.94
2023-05-05T09:58:19.906Z,101819.16
2023-05-05T10:00:48.484Z,101810.00
2023-05-05T10:03:18.601Z,101802.91
2023-05-05T10:05:52.185Z,101805.41
2023-05-05T10:08:22.248Z,101861.31
2023-05-05T10:10:55.465Z,101845.09
2023-05-05T10:13:25.460Z,101824.88
2023-05-05T10:15:57.100Z,101821.34
2023-05-05T10:18:39.004Z,101807.63
2023-05-05T10:21:08.329Z,101832.25
2023-05-05T10:23:48.918Z,101824.69
2023-05-05T10:26:21.036Z,101844.56
2023-05-05T10:28:52.701Z,101840.06
2023-05-05T10:31:30.257Z,101845.75
2023-05-05T10:34:07.795Z,101833.34
2023-05-05T10:36:39.055Z,101826.16
2023-05-05T10:39:09.449Z,101833.72
2023-05-05T10:41:38.859Z,101808.31
2023-05-05T10:44:07.960Z,101816.56
2023-05-05T10:46:36.544Z,101804.28
2023-05-05T10:49:18.256Z,101781.44
2023-05-05T10:51:54.557Z,101800.41
2023-05-05T10:54:40.750Z,101818.88
2023-05-05T10:57:12.227Z,101851.34
2023-05-05T10:59:47.556Z,101842.41
2023-05-05T11:02:24.634Z,101821.56
2023-05-05T11:05:18.411Z,101789.09
2023-05-05T11:07:47.662Z,101790.31
2023-05-05T11:10:18.853Z,101808.81
2023-05-05T11:13:21.950Z,101818.09
2023-05-05T11:15:55.137Z,101775.06
2023-05-05T11:18:34.001Z,101794.03
2023-05-05T11:21:17.144Z,101814.53
2023-05-05T11:23:51.666Z,101783.25
2023-05-05T11:26:51.714Z,101803.22
2023-05-05T11:29:21.763Z,101790.38
2023-05-05T11:32:22.979Z,101715.97
2023-05-05T11:34:51.837Z,101809.50
2023-05-05T11:37:28.435Z,101814.22
2023-05-05T11:40:08.901Z,101819.75
2023-05-05T11:42:39.081Z,101827.78
2023-05-05T11:45:22.697Z,101803.22
2023-05-05T11:47:51.352Z,101816.78
2023-05-05T11:50:23.044Z,101814.41
2023-05-05T11:52:52.829Z,101813.69
2023-05-05T11:55:25.559Z,101818.38
2023-05-05T11:57:53.865Z,101810.66
2023-05-05T12:00:33.532Z,101806.81
2023-05-05T12:03:01.993Z,101811.59
2023-05-05T12:05:30.854Z,101815.16
2023-05-05T12:08:00.649Z,101809.31
2023-05-05T12:10:29.265Z,101819.41
2023-05-05T12:12:58.092Z,101798.09
2023-05-05T12:15:31.711Z,101763.41
2023-05-05T12:18:03.339Z,101823.25
2023-05-05T12:20:38.225Z,101797.06
2023-05-05T12:23:08.549Z,101817.75
2023-05-05T12:25:39.642Z,101801.09
2023-05-05T12:28:09.683Z,101783.78
2023-05-05T12:30:38.203Z,101817.59
2023-05-05T12:33:08.437Z,101797.41
2023-05-05T12:35:37.851Z,101834.06
2023-05-05T12:38:07.540Z,101834.34
2023-05-05T12:40:55.364Z,101844.91
2023-05-05T12:43:32.672Z,101849.13
2023-05-05T12:46:12.998Z,101871.47
2023-05-05T12:48:45.632Z,101880.16
2023-05-05T12:51:20.985Z,101887.66
2023-05-05T12:54:05.756Z,101887.63
2023-05-05T12:56:36.648Z,101856.00
2023-05-05T12:59:06.805Z,101878.09
2023-05-05T13:01:36.485Z,101803.28
2023-05-05T13:04:15.537Z,101832.59
2023-05-05T13:06:45.480Z,101823.22
2023-05-05T13:09:26.007Z,101855.84
2023-05-05T13:11:54.926Z,101837.53
2023-05-05T13:14:25.603Z,101826.59
2023-05-05T13:16:54.628Z,101826.13
2023-05-05T13:19:24.850Z,101847.53
2023-05-05T13:21:53.535Z,101848.00
2023-05-05T13:24:38.075Z,101845.28
2023-05-05T13:27:14.612Z,101839.88
2023-05-05T13:29:43.804Z,101832.59
2023-05-05T13:32:11.982Z,101794.16
2023-05-05T13:37:11.547Z,101790.81
2023-05-05T13:39:45.172Z,101791.69
2023-05-05T13:42:13.400Z,101788.94
2023-05-05T13:44:41.555Z,101768.72
2023-05-05T13:47:09.904Z,101788.41
2023-05-05T13:49:44.781Z,101760.25
2023-05-05T13:52:13.057Z,101770.78
2023-05-05T13:54:42.621Z,101766.56
2023-05-05T13:57:12.272Z,101765.50
2023-05-05T13:59:40.545Z,101745.97
2023-05-05T14:02:08.745Z,101756.53
2023-05-05T14:04:37.469Z,101733.13
2023-05-05T14:07:05.720Z,101748.94
2023-05-05T14:09:33.883Z,101744.91
2023-05-05T14:12:03.520Z,101749.88
2023-05-05T14:14:37.699Z,101755.75
2023-05-05T14:17:06.386Z,101754.28
2023-05-05T14:19:34.710Z,101759.72
2023-05-05T14:22:02.844Z,101764.31
2023-05-05T14:24:33.293Z,101745.84
2023-05-05T14:27:04.569Z,101750.44
2023-05-05T14:29:32.833Z,101756.13
2023-05-05T14:32:01.082Z,101747.28
2023-05-05T14:34:29.392Z,101767.59
2023-05-05T14:36:59.696Z,101751.03
2023-05-05T14:39:33.165Z,101742.88
2023-05-05T14:42:02.051Z,101751.28
2023-05-05T14:44:31.555Z,101740.25
2023-05-05T14:46:59.938Z,101749.78
2023-05-05T14:49:28.196Z,101724.63
2023-05-05T14:51:57.223Z,101750.59
2023-05-05T14:54:28.755Z,101749.72
2023-05-05T14:56:58.333Z,101755.06
2023-05-05T14:59:27.471Z,101754.78
2023-05-05T15:01:57.212Z,101757.56
2023-05-05T15:04:25.602Z,101756.19
2023-05-05T15:06:54.006Z,101751.34
2023-05-05T15:09:22.322Z,101748.06
2023-05-05T15:11:50.687Z,101739.53
2023-05-05T15:14:18.905Z,101751.84
2023-05-05T15:16:49.323Z,101747.66
2023-05-05T15:19:25.798Z,101724.88
2023-05-05T15:21:54.159Z,101713.66
2023-05-05T15:24:22.836Z,101745.25
2023-05-05T15:26:51.186Z,101748.84
2023-05-05T15:29:19.456Z,101753.34
2023-05-05T15:31:52.777Z,101754.47
2023-05-05T15:34:21.406Z,101759.78
2023-05-05T15:36:50.970Z,101722.22
2023-05-05T15:39:19.201Z,101752.09
2023-05-05T15:41:47.331Z,101755.56
2023-05-05T15:44:15.966Z,101747.88
2023-05-05T15:46:49.717Z,101749.94
2023-05-05T15:49:28.687Z,101746.78
2023-05-05T15:52:00.828Z,101728.53
2023-05-05T15:54:29.006Z,101734.88
2023-05-05T15:56:57.280Z,101735.50
2023-05-05T15:59:28.151Z,101715.28
2023-05-05T16:01:56.424Z,101736.72
2023-05-05T16:04:24.575Z,101738.16
2023-05-05T16:06:52.768Z,101702.56
2023-05-05T16:09:22.616Z,101723.75
2023-05-05T16:11:50.794Z,101665.06
2023-05-05T16:14:19.024Z,101728.16
2023-05-05T16:16:51.282Z,101729.25
2023-05-05T16:19:19.637Z,101727.44
2023-05-05T16:21:48.283Z,101734.59
2023-05-05T16:24:16.691Z,101735.63
2023-05-05T16:26:48.921Z,101738.72
2023-05-05T16:29:17.637Z,101742.00
2023-05-05T16:31:45.931Z,101738.28
2023-05-05T16:34:16.941Z,101744.75
2023-05-05T16:36:45.358Z,101744.75
2023-05-05T16:39:13.624Z,101750.06
2023-05-05T16:41:42.127Z,101731.94
2023-05-05T16:44:11.826Z,101733.03
2023-05-05T16:46:41.263Z,101728.66
2023-05-05T16:49:18.444Z,101728.38
2023-05-05T16:51:46.692Z,101737.41
2023-05-05T16:54:14.960Z,101692.94
2023-05-05T16:56:45.050Z,101726.53
2023-05-05T16:59:19.116Z,101740.19
2023-05-05T17:01:51.876Z,101737.22
2023-05-05T17:04:21.930Z,101734.47
2023-05-05T17:06:54.959Z,101739.59
2023-05-05T17:09:24.879Z,101704.06
2023-05-05T17:11:53.238Z,101730.53
2023-05-05T17:14:27.551Z,101737.94
2023-05-05T17:16:58.400Z,101732.03
2023-05-05T17:19:28.073Z,101733.09
2023-05-05T17:21:57.782Z,101736.28
2023-05-05T17:24:26.043Z,101682.66
2023-05-05T17:26:54.944Z,101706.97
2023-05-05T17:29:24.759Z,101703.19
2023-05-05T17:31:55.689Z,101722.63
2023-05-05T17:34:23.986Z,101717.09
2023-05-05T17:36:52.127Z,101720.56
2023-05-05T17:39:20.314Z,101705.66
2023-05-05T17:41:48.798Z,101706.13
2023-05-05T17:44:18.767Z,101700.28
2023-05-05T17:46:50.095Z,101700.28
2023-05-05T17:49:18.321Z,101710.16
2023-05-05T17:51:46.537Z,101675.25
2023-05-05T17:54:14.836Z,101701.81
2023-05-05T17:56:43.068Z,101704.31
2023-05-05T17:59:11.218Z,101691.56
2023-05-05T18:01:41.208Z,101709.94
2023-05-05T18:04:10.885Z,101711.56
2023-05-05T18:06:39.159Z,101704.25
2023-05-05T18:09:13.260Z,101713.78
2023-05-05T18:11:43.799Z,101717.25
2023-05-05T18:14:20.247Z,101719.03
2023-05-05T18:16:52.498Z,101724.78
2023-05-05T18:19:24.392Z,101729.00
2023-05-05T18:21:54.336Z,101734.41
2023-05-05T18:24:22.793Z,101681.22
2023-05-05T18:26:52.731Z,101729.69
2023-05-05T18:29:22.775Z,101714.59
2023-05-05T18:31:54.911Z,101731.56
2023-05-05T18:34:26.525Z,101644.00
2023-05-05T18:36:56.488Z,101737.38
2023-05-05T18:39:24.751Z,101727.78
2023-05-05T18:41:54.715Z,101718.34
2023-05-05T18:44:25.469Z,101730.56
2023-05-05T18:46:56.290Z,101738.28
2023-05-05T18:49:26.767Z,101740.44
2023-05-05T18:52:04.484Z,101742.13
2023-05-05T18:54:32.824Z,101749.81
2023-05-05T18:57:04.732Z,101747.88
2023-05-05T18:59:32.965Z,101755.19
2023-05-05T19:02:02.306Z,101762.47
2023-05-05T19:04:37.407Z,101758.28
2023-05-05T19:07:06.028Z,101762.91
2023-05-05T19:09:39.149Z,101730.16
2023-05-05T19:12:09.926Z,101758.75
2023-05-05T19:14:38.126Z,101731.50
2023-05-05T19:17:07.302Z,101777.41
2023-05-05T19:19:36.945Z,101766.13
2023-05-05T19:22:05.362Z,101771.16
2023-05-05T19:24:35.507Z,101790.28
2023-05-05T19:27:04.002Z,101784.41
2023-05-05T19:29:32.396Z,101771.63
2023-05-05T19:32:00.630Z,101786.56
2023-05-05T19:34:28.764Z,101786.03
2023-05-05T19:36:58.598Z,101784.19
2023-05-05T19:39:26.774Z,101793.75
2023-05-05T19:41:55.267Z,101763.97
2023-05-05T19:44:23.826Z,101785.97
2023-05-05T19:46:53.467Z,101779.44
2023-05-05T19:49:21.712Z,101797.22
2023-05-05T19:51:52.133Z,101800.25
2023-05-05T19:54:26.607Z,101768.41
2023-05-05T19:56:56.030Z,101803.25
2023-05-05T19:59:26.019Z,101799.50
2023-05-05T20:01:56.638Z,101797.81
2023-05-05T20:04:26.869Z,101790.97
2023-05-05T20:06:58.337Z,101802.38
2023-05-05T20:09:28.564Z,101801.19
2023-05-05T20:11:57.249Z,101770.53
2023-05-05T20:14:25.705Z,101789.09
2023-05-05T20:16:53.880Z,101803.91
2023-05-05T20:19:24.066Z,101807.97
2023-05-05T20:21:52.422Z,101772.84
2023-05-05T20:24:22.844Z,101798.75
2023-05-05T20:26:52.509Z,101808.38
2023-05-05T20:29:20.789Z,101746.34
2023-05-05T20:31:54.853Z,101811.75
2023-05-05T20:34:24.932Z,101784.88
2023-05-05T20:36:53.158Z,101795.31
2023-05-05T20:39:25.415Z,101796.97
2023-05-05T20:41:58.082Z,101795.09
2023-05-05T20:44:29.096Z,101786.66
2023-05-05T20:46:57.342Z,101771.63
2023-05-05T20:49:28.819Z,101805.06
2023-05-05T20:52:01.532Z,101800.78
2023-05-05T20:54:40.342Z,101770.44
2023-05-05T20:57:11.622Z,101800.34
2023-05-05T20:59:39.785Z,101673.44
2023-05-05T21:02:10.539Z,101754.94
2023-05-05T21:04:39.152Z,101781.72
2023-05-05T21:07:07.556Z,101793.81
2023-05-05T21:09:36.550Z,101792.69
2023-05-05T21:12:10.676Z,101798.06
2023-05-05T21:14:44.438Z,101796.59
2023-05-05T21:17:12.772Z,101774.22
2023-05-05T21:19:41.190Z,101803.53
2023-05-05T21:22:09.643Z,101788.25
2023-05-05T21:24:39.696Z,101765.53
2023-05-05T21:27:08.096Z,101755.72
2023-05-05T21:29:37.810Z,101741.41
2023-05-05T21:32:09.268Z,101786.63
2023-05-05T21:34:38.200Z,101754.75
2023-05-05T21:37:07.109Z,101790.22
2023-05-05T21:39:35.465Z,101790.34
2023-05-05T21:42:03.725Z,101791.66
2023-05-05T21:44:32.146Z,101785.63
2023-05-05T21:47:00.309Z,101796.84
2023-05-05T21:49:30.525Z,101796.34
2023-05-05T21:51:58.735Z,101749.59
2023-05-05T21:54:27.198Z,101795.22
2023-05-05T21:56:55.405Z,101791.69
2023-05-05T21:59:23.635Z,101788.97
2023-05-05T22:01:51.953Z,101770.13
2023-05-05T22:04:20.246Z,101790.34
2023-05-05T22:06:49.905Z,101784.09
2023-05-05T22:09:18.336Z,101788.97
2023-05-05T22:11:48.199Z,101782.06
2023-05-05T22:14:16.452Z,101757.16
2023-05-05T22:16:44.634Z,101784.53
2023-05-05T22:19:12.865Z,101776.81
2023-05-05T22:21:40.987Z,101740.72
2023-05-05T22:24:10.563Z,101782.81
2023-05-05T22:26:43.166Z,101782.13
2023-05-05T22:29:11.749Z,101783.97
2023-05-05T22:31:40.235Z,101778.91
2023-05-05T22:34:08.409Z,101777.22
2023-05-05T22:36:36.643Z,101772.34
2023-05-05T22:39:05.257Z,101745.56
2023-05-05T22:41:34.790Z,101776.84
2023-05-05T22:44:02.963Z,101772.47
2023-05-05T22:46:31.129Z,101778.94
2023-05-05T22:48:59.438Z,101765.72
2023-05-05T22:51:27.863Z,101769.22
2023-05-05T22:53:56.229Z,101764.34
2023-05-05T22:56:24.395Z,101768.47
2023-05-05T22:58:53.903Z,101757.13
2023-05-05T23:01:22.178Z,101715.19
2023-05-05T23:03:50.722Z,101764.09
2023-05-05T23:06:19.011Z,101766.47
2023-05-05T23:08:48.910Z,101733.06
2023-05-05T23:11:21.920Z,101752.78
2023-05-05T23:13:50.180Z,101767.44
2023-05-05T23:16:19.879Z,101617.75
2023-05-05T23:18:48.091Z,101762.34
2023-05-05T23:21:16.366Z,101717.00
2023-05-05T23:23:44.694Z,101682.38
2023-05-05T23:26:16.263Z,101738.41
2023-05-05T23:28:44.478Z,101735.06
2023-05-05T23:31:15.782Z,101757.31
2023-05-05T23:33:45.381Z,101760.47
2023-05-05T23:36:13.580Z,101741.81
2023-05-05T23:38:41.832Z,101761.81
2023-05-05T23:41:10.119Z,101751.22
2023-05-05T23:43:38.309Z,101760.66
2023-05-05T23:46:06.640Z,101717.59
2023-05-05T23:48:36.901Z,101755.19
2023-05-05T23:51:06.366Z,101757.59
2023-05-05T23:53:34.659Z,101709.97
2023-05-05T23:56:02.866Z,101725.81
2023-05-05T23:58:31.118Z,101668.13
